sensor_id;sensor_type;location;lat;lon;timestamp;temperature;humidity
41939;DHT22;23057;48.554;14.454;2023-01-01T00:01:28;8.00;99.90
41939;DHT22;23057;48.554;14.454;2023-01-01T00:04:00;7.90;99.90
41939;DHT22;23057;48.554;14.454;2023-01-01T00:06:30;7.40;99.90
41939;DHT22;23057;48.554;14.454;2023-01-01T00:09:02;6.80;99.90
41939;DHT22;23057;48.554;14.454;2023-01-01T00:11:52;6.50;99.90
41939;DHT22;23057;48.554;14.454;2023-01-01T00:14:23;6.70;99.90
41939;DHT22;23057;48.554;14.454;2023-01-01T00:16:54;7.10;99.90
41939;DHT22;23057;48.554;14.454;2023-01-01T00:19:25;7.70;99.90
41939;DHT22;23057;48.554;14.454;2023-01-01T00:21:55;7.80;99.90
41939;DHT22;23057;48.554;14.454;2023-01-01T00:24:26;7.80;99.90
41939;DHT22;23057;48.554;14.454;2023-01-01T00:26:57;7.90;99.90
41939;DHT22;23057;48.554;14.454;2023-01-01T00:29:28;8.00;99.90
41939;DHT22;23057;48.554;14.454;2023-01-01T00:31:58;7.90;99.90
41939;DHT22;23057;48.554;14.454;2023-01-01T00:34:29;7.70;99.90
41939;DHT22;23057;48.554;14.454;2023-01-01T00:37:00;7.70;99.90
41939;DHT22;23057;48.554;14.454;2023-01-01T00:39:30;7.80;99.90
41939;DHT22;23057;48.554;14.454;2023-01-01T00:42:01;8.00;99.90
41939;DHT22;23057;48.554;14.454;2023-01-01T00:44:32;8.00;99.90
41939;DHT22;23057;48.554;14.454;2023-01-01T00:47:03;8.00;99.90
41939;DHT22;23057;48.554;14.454;2023-01-01T00:49:34;8.00;99.90
41939;DHT22;23057;48.554;14.454;2023-01-01T00:52:04;8.00;99.90
41939;DHT22;23057;48.554;14.454;2023-01-01T00:54:35;8.20;99.90
41939;DHT22;23057;48.554;14.454;2023-01-01T00:57:06;8.70;99.90
41939;DHT22;23057;48.554;14.454;2023-01-01T00:59:37;8.90;99.90
41939;DHT22;23057;48.554;14.454;2023-01-01T01:02:07;8.60;99.90
41939;DHT22;23057;48.554;14.454;2023-01-01T01:04:38;8.20;99.90
41939;DHT22;23057;48.554;14.454;2023-01-01T01:07:09;8.00;99.90
41939;DHT22;23057;48.554;14.454;2023-01-01T01:09:40;7.80;99.90
41939;DHT22;23057;48.554;14.454;2023-01-01T01:12:10;7.80;99.90
41939;DHT22;23057;48.554;14.454;2023-01-01T01:14:41;8.10;99.90
41939;DHT22;23057;48.554;14.454;2023-01-01T01:17:12;8.00;99.90
41939;DHT22;23057;48.554;14.454;2023-01-01T01:19:43;7.80;99.90
41939;DHT22;23057;48.554;14.454;2023-01-01T01:22:13;7.60;99.90
41939;DHT22;23057;48.554;14.454;2023-01-01T01:24:44;7.60;99.90
41939;DHT22;23057;48.554;14.454;2023-01-01T01:27:15;7.50;99.90
41939;DHT22;23057;48.554;14.454;2023-01-01T01:29:46;7.30;99.90
41939;DHT22;23057;48.554;14.454;2023-01-01T01:32:17;7.40;99.90
41939;DHT22;23057;48.554;14.454;2023-01-01T01:34:48;7.50;99.90
41939;DHT22;23057;48.554;14.454;2023-01-01T01:37:19;7.60;99.90
41939;DHT22;23057;48.554;14.454;2023-01-01T01:39:50;7.60;99.90
41939;DHT22;23057;48.554;14.454;2023-01-01T01:42:21;7.50;99.90
41939;DHT22;23057;48.554;14.454;2023-01-01T01:44:56;7.30;99.90
41939;DHT22;23057;48.554;14.454;2023-01-01T01:47:31;7.40;99.90
41939;DHT22;23057;48.554;14.454;2023-01-01T01:50:08;7.50;99.90
41939;DHT22;23057;48.554;14.454;2023-01-01T01:53:04;7.50;99.90
41939;DHT22;23057;48.554;14.454;2023-01-01T01:56:00;7.30;99.90
41939;DHT22;23057;48.554;14.454;2023-01-01T01:58:36;7.40;99.90
41939;DHT22;23057;48.554;14.454;2023-01-01T02:01:07;7.50;99.90
41939;DHT22;23057;48.554;14.454;2023-01-01T02:03:52;7.90;99.90
41939;DHT22;23057;48.554;14.454;2023-01-01T02:06:29;7.80;99.90
41939;DHT22;23057;48.554;14.454;2023-01-01T02:09:02;8.00;99.90
41939;DHT22;23057;48.554;14.454;2023-01-01T02:11:36;8.20;99.90
41939;DHT22;23057;48.554;14.454;2023-01-01T02:14:06;8.10;99.90
41939;DHT22;23057;48.554;14.454;2023-01-01T02:25:44;7.70;99.90
41939;DHT22;23057;48.554;14.454;2023-01-01T02:28:47;7.40;99.90
41939;DHT22;23057;48.554;14.454;2023-01-01T02:31:35;7.40;99.90
41939;DHT22;23057;48.554;14.454;2023-01-01T02:34:18;7.40;99.90
41939;DHT22;23057;48.554;14.454;2023-01-01T02:36:56;7.50;99.90
41939;DHT22;23057;48.554;14.454;2023-01-01T02:39:32;7.40;99.90
41939;DHT22;23057;48.554;14.454;2023-01-01T02:42:08;7.50;99.90
41939;DHT22;23057;48.554;14.454;2023-01-01T02:44:39;7.60;99.90
41939;DHT22;23057;48.554;14.454;2023-01-01T02:47:15;7.60;99.90
41939;DHT22;23057;48.554;14.454;2023-01-01T02:50:07;7.50;99.90
41939;DHT22;23057;48.554;14.454;2023-01-01T02:53:16;7.50;99.90
41939;DHT22;23057;48.554;14.454;2023-01-01T03:02:22;7.30;99.90
41939;DHT22;23057;48.554;14.454;2023-01-01T03:10:45;7.50;99.90
41939;DHT22;23057;48.554;14.454;2023-01-01T03:16:27;7.50;99.90
41939;DHT22;23057;48.554;14.454;2023-01-01T03:19:15;7.60;99.90
41939;DHT22;23057;48.554;14.454;2023-01-01T03:21:56;7.50;99.90
41939;DHT22;23057;48.554;14.454;2023-01-01T03:24:37;7.30;99.90
41939;DHT22;23057;48.554;14.454;2023-01-01T03:27:21;7.10;99.90
41939;DHT22;23057;48.554;14.454;2023-01-01T03:29:58;7.10;99.90
41939;DHT22;23057;48.554;14.454;2023-01-01T03:32:37;7.10;99.90
41939;DHT22;23057;48.554;14.454;2023-01-01T03:35:31;7.10;99.90
41939;DHT22;23057;48.554;14.454;2023-01-01T03:38:15;7.10;99.90
41939;DHT22;23057;48.554;14.454;2023-01-01T03:41:08;7.10;99.90
41939;DHT22;23057;48.554;14.454;2023-01-01T03:43:53;7.10;99.90
41939;DHT22;23057;48.554;14.454;2023-01-01T03:46:28;7.10;99.90
41939;DHT22;23057;48.554;14.454;2023-01-01T03:49:04;7.20;99.90
41939;DHT22;23057;48.554;14.454;2023-01-01T04:00:53;7.30;99.90
41939;DHT22;23057;48.554;14.454;2023-01-01T04:03:31;7.10;99.90
41939;DHT22;23057;48.554;14.454;2023-01-01T04:06:06;7.10;99.90
41939;DHT22;23057;48.554;14.454;2023-01-01T04:08:41;7.20;99.90
41939;DHT22;23057;48.554;14.454;2023-01-01T04:11:14;7.20;99.90
41939;DHT22;23057;48.554;14.454;2023-01-01T04:14:11;7.20;99.90
41939;DHT22;23057;48.554;14.454;2023-01-01T04:16:41;7.30;99.90
41939;DHT22;23057;48.554;14.454;2023-01-01T04:19:12;7.40;99.90
41939;DHT22;23057;48.554;14.454;2023-01-01T04:21:43;7.40;99.90
41939;DHT22;23057;48.554;14.454;2023-01-01T04:24:13;7.50;99.90
41939;DHT22;23057;48.554;14.454;2023-01-01T04:26:44;7.50;99.90
41939;DHT22;23057;48.554;14.454;2023-01-01T04:29:15;7.50;99.90
41939;DHT22;23057;48.554;14.454;2023-01-01T04:31:47;7.40;99.90
41939;DHT22;23057;48.554;14.454;2023-01-01T04:34:19;7.40;99.90
41939;DHT22;23057;48.554;14.454;2023-01-01T04:36:50;7.40;99.90
41939;DHT22;23057;48.554;14.454;2023-01-01T04:39:21;7.50;99.90
41939;DHT22;23057;48.554;14.454;2023-01-01T04:41:51;7.40;99.90
41939;DHT22;23057;48.554;14.454;2023-01-01T04:44:22;7.40;99.90
41939;DHT22;23057;48.554;14.454;2023-01-01T04:46:53;7.30;99.90
41939;DHT22;23057;48.554;14.454;2023-01-01T04:49:24;7.10;99.90
41939;DHT22;23057;48.554;14.454;2023-01-01T04:51:54;6.90;99.90
41939;DHT22;23057;48.554;14.454;2023-01-01T04:54:25;7.00;99.90
41939;DHT22;23057;48.554;14.454;2023-01-01T04:56:56;7.10;99.90
41939;DHT22;23057;48.554;14.454;2023-01-01T04:59:28;7.00;99.90
41939;DHT22;23057;48.554;14.454;2023-01-01T05:02:00;7.20;99.90
41939;DHT22;23057;48.554;14.454;2023-01-01T05:04:30;7.20;99.90
41939;DHT22;23057;48.554;14.454;2023-01-01T05:07:01;7.30;99.90
41939;DHT22;23057;48.554;14.454;2023-01-01T05:09:32;7.10;99.90
41939;DHT22;23057;48.554;14.454;2023-01-01T05:12:03;7.10;99.90
41939;DHT22;23057;48.554;14.454;2023-01-01T05:14:33;7.00;99.90
41939;DHT22;23057;48.554;14.454;2023-01-01T05:17:04;7.00;99.90
41939;DHT22;23057;48.554;14.454;2023-01-01T05:19:35;7.00;99.90
41939;DHT22;23057;48.554;14.454;2023-01-01T05:22:06;6.80;99.90
41939;DHT22;23057;48.554;14.454;2023-01-01T05:24:36;6.80;99.90
41939;DHT22;23057;48.554;14.454;2023-01-01T05:27:07;6.70;99.90
41939;DHT22;23057;48.554;14.454;2023-01-01T05:29:38;6.60;99.90
41939;DHT22;23057;48.554;14.454;2023-01-01T05:32:09;6.60;99.90
41939;DHT22;23057;48.554;14.454;2023-01-01T05:34:39;6.40;99.90
41939;DHT22;23057;48.554;14.454;2023-01-01T05:37:10;6.40;99.90
41939;DHT22;23057;48.554;14.454;2023-01-01T05:39:41;6.50;99.90
41939;DHT22;23057;48.554;14.454;2023-01-01T05:42:11;6.60;99.90
41939;DHT22;23057;48.554;14.454;2023-01-01T05:44:44;6.60;99.90
41939;DHT22;23057;48.554;14.454;2023-01-01T05:47:15;6.60;99.90
41939;DHT22;23057;48.554;14.454;2023-01-01T05:49:47;6.50;99.90
41939;DHT22;23057;48.554;14.454;2023-01-01T05:52:18;6.50;99.90
41939;DHT22;23057;48.554;14.454;2023-01-01T05:54:49;6.60;99.90
41939;DHT22;23057;48.554;14.454;2023-01-01T05:57:20;6.60;99.90
41939;DHT22;23057;48.554;14.454;2023-01-01T05:59:50;6.50;99.90
41939;DHT22;23057;48.554;14.454;2023-01-01T06:02:21;6.50;99.90
41939;DHT22;23057;48.554;14.454;2023-01-01T06:04:52;6.50;99.90
41939;DHT22;23057;48.554;14.454;2023-01-01T06:07:23;6.40;99.90
41939;DHT22;23057;48.554;14.454;2023-01-01T06:09:53;6.50;99.90
41939;DHT22;23057;48.554;14.454;2023-01-01T06:12:24;6.70;99.90
41939;DHT22;23057;48.554;14.454;2023-01-01T06:14:55;6.70;99.90
41939;DHT22;23057;48.554;14.454;2023-01-01T06:17:25;6.60;99.90
41939;DHT22;23057;48.554;14.454;2023-01-01T06:19:56;6.70;99.90
41939;DHT22;23057;48.554;14.454;2023-01-01T06:22:27;7.00;99.90
41939;DHT22;23057;48.554;14.454;2023-01-01T06:24:58;6.90;99.90
41939;DHT22;23057;48.554;14.454;2023-01-01T06:27:28;6.50;99.90
41939;DHT22;23057;48.554;14.454;2023-01-01T06:29:59;6.30;99.90
41939;DHT22;23057;48.554;14.454;2023-01-01T06:32:30;6.10;99.90
41939;DHT22;23057;48.554;14.454;2023-01-01T06:35:01;6.00;99.90
41939;DHT22;23057;48.554;14.454;2023-01-01T06:37:32;6.00;99.90
41939;DHT22;23057;48.554;14.454;2023-01-01T06:40:02;6.20;99.90
41939;DHT22;23057;48.554;14.454;2023-01-01T06:42:34;6.70;99.90
41939;DHT22;23057;48.554;14.454;2023-01-01T06:45:05;6.90;99.90
41939;DHT22;23057;48.554;14.454;2023-01-01T06:47:36;7.20;99.90
41939;DHT22;23057;48.554;14.454;2023-01-01T06:50:07;7.30;99.90
41939;DHT22;23057;48.554;14.454;2023-01-01T06:52:38;7.60;99.90
41939;DHT22;23057;48.554;14.454;2023-01-01T06:55:09;7.80;99.90
41939;DHT22;23057;48.554;14.454;2023-01-01T06:57:39;7.80;99.90
41939;DHT22;23057;48.554;14.454;2023-01-01T07:00:10;7.50;99.90
41939;DHT22;23057;48.554;14.454;2023-01-01T07:02:42;7.50;99.90
41939;DHT22;23057;48.554;14.454;2023-01-01T07:05:13;7.60;99.90
41939;DHT22;23057;48.554;14.454;2023-01-01T07:07:44;7.30;99.90
41939;DHT22;23057;48.554;14.454;2023-01-01T07:10:14;6.90;99.90
41939;DHT22;23057;48.554;14.454;2023-01-01T07:12:45;6.70;99.90
41939;DHT22;23057;48.554;14.454;2023-01-01T07:15:16;6.60;99.90
41939;DHT22;23057;48.554;14.454;2023-01-01T07:17:46;6.80;99.90
41939;DHT22;23057;48.554;14.454;2023-01-01T07:20:17;6.80;99.90
41939;DHT22;23057;48.554;14.454;2023-01-01T07:22:48;6.70;99.90
41939;DHT22;23057;48.554;14.454;2023-01-01T07:25:19;6.70;99.90
41939;DHT22;23057;48.554;14.454;2023-01-01T07:27:49;6.50;99.90
41939;DHT22;23057;48.554;14.454;2023-01-01T07:30:20;6.40;99.90
41939;DHT22;23057;48.554;14.454;2023-01-01T07:32:54;6.40;99.90
41939;DHT22;23057;48.554;14.454;2023-01-01T07:35:25;6.70;99.90
41939;DHT22;23057;48.554;14.454;2023-01-01T07:37:56;6.80;99.90
41939;DHT22;23057;48.554;14.454;2023-01-01T07:40:27;7.00;99.90
41939;DHT22;23057;48.554;14.454;2023-01-01T07:42:57;7.20;99.90
41939;DHT22;23057;48.554;14.454;2023-01-01T07:45:28;7.40;99.90
41939;DHT22;23057;48.554;14.454;2023-01-01T07:47:59;7.80;99.90
41939;DHT22;23057;48.554;14.454;2023-01-01T07:50:31;8.00;99.90
41939;DHT22;23057;48.554;14.454;2023-01-01T07:53:02;7.70;99.90
41939;DHT22;23057;48.554;14.454;2023-01-01T07:55:33;7.50;99.90
41939;DHT22;23057;48.554;14.454;2023-01-01T07:58:05;7.50;99.90
41939;DHT22;23057;48.554;14.454;2023-01-01T08:00:36;7.70;99.90
41939;DHT22;23057;48.554;14.454;2023-01-01T08:03:08;7.90;99.90
41939;DHT22;23057;48.554;14.454;2023-01-01T08:05:38;8.10;99.90
41939;DHT22;23057;48.554;14.454;2023-01-01T08:08:09;8.00;99.90
41939;DHT22;23057;48.554;14.454;2023-01-01T08:10:41;8.10;99.90
41939;DHT22;23057;48.554;14.454;2023-01-01T08:13:12;8.30;99.90
41939;DHT22;23057;48.554;14.454;2023-01-01T08:15:42;7.70;99.90
41939;DHT22;23057;48.554;14.454;2023-01-01T08:18:13;7.30;99.90
41939;DHT22;23057;48.554;14.454;2023-01-01T08:20:44;7.60;99.90
41939;DHT22;23057;48.554;14.454;2023-01-01T08:23:14;7.50;99.90
41939;DHT22;23057;48.554;14.454;2023-01-01T08:25:45;8.00;99.90
41939;DHT22;23057;48.554;14.454;2023-01-01T08:28:16;8.40;99.90
41939;DHT22;23057;48.554;14.454;2023-01-01T08:30:47;8.80;99.90
41939;DHT22;23057;48.554;14.454;2023-01-01T08:33:17;9.00;30.80
41939;DHT22;23057;48.554;14.454;2023-01-01T08:35:48;8.90;1.00
41939;DHT22;23057;48.554;14.454;2023-01-01T08:38:19;9.10;1.00
41939;DHT22;23057;48.554;14.454;2023-01-01T08:40:50;9.40;1.00
41939;DHT22;23057;48.554;14.454;2023-01-01T08:43:21;9.60;99.90
41939;DHT22;23057;48.554;14.454;2023-01-01T08:45:51;9.80;99.90
41939;DHT22;23057;48.554;14.454;2023-01-01T08:48:22;10.00;79.50
41939;DHT22;23057;48.554;14.454;2023-01-01T08:50:53;10.10;1.00
41939;DHT22;23057;48.554;14.454;2023-01-01T08:53:29;10.20;1.00
41939;DHT22;23057;48.554;14.454;2023-01-01T08:56:02;10.30;99.90
41939;DHT22;23057;48.554;14.454;2023-01-01T08:58:36;10.30;99.90
41939;DHT22;23057;48.554;14.454;2023-01-01T09:01:09;10.40;99.90
41939;DHT22;23057;48.554;14.454;2023-01-01T09:03:40;10.30;99.90
41939;DHT22;23057;48.554;14.454;2023-01-01T09:06:11;10.40;99.90
41939;DHT22;23057;48.554;14.454;2023-01-01T09:08:43;10.30;99.90
41939;DHT22;23057;48.554;14.454;2023-01-01T09:11:18;10.30;99.90
41939;DHT22;23057;48.554;14.454;2023-01-01T09:13:54;10.40;99.90
41939;DHT22;23057;48.554;14.454;2023-01-01T09:16:25;10.40;99.90
41939;DHT22;23057;48.554;14.454;2023-01-01T09:18:56;10.60;99.90
41939;DHT22;23057;48.554;14.454;2023-01-01T09:21:26;10.50;99.90
41939;DHT22;23057;48.554;14.454;2023-01-01T09:23:57;10.50;99.90
41939;DHT22;23057;48.554;14.454;2023-01-01T09:26:28;10.40;1.00
41939;DHT22;23057;48.554;14.454;2023-01-01T09:28:58;10.50;99.90
41939;DHT22;23057;48.554;14.454;2023-01-01T09:31:29;10.70;1.00
41939;DHT22;23057;48.554;14.454;2023-01-01T09:34:00;10.80;99.90
41939;DHT22;23057;48.554;14.454;2023-01-01T09:36:31;10.80;99.90
41939;DHT22;23057;48.554;14.454;2023-01-01T09:39:02;11.00;99.90
41939;DHT22;23057;48.554;14.454;2023-01-01T09:41:42;11.00;99.90
41939;DHT22;23057;48.554;14.454;2023-01-01T09:44:55;11.20;99.90
41939;DHT22;23057;48.554;14.454;2023-01-01T09:47:36;11.20;99.90
41939;DHT22;23057;48.554;14.454;2023-01-01T09:50:19;11.30;99.90
41939;DHT22;23057;48.554;14.454;2023-01-01T09:53:03;11.40;99.90
41939;DHT22;23057;48.554;14.454;2023-01-01T09:55:52;11.50;99.90
41939;DHT22;23057;48.554;14.454;2023-01-01T09:58:28;11.60;99.90
41939;DHT22;23057;48.554;14.454;2023-01-01T10:01:18;11.60;99.90
41939;DHT22;23057;48.554;14.454;2023-01-01T10:10:30;11.80;99.90
41939;DHT22;23057;48.554;14.454;2023-01-01T10:13:39;12.00;99.90
41939;DHT22;23057;48.554;14.454;2023-01-01T10:18:52;12.30;99.90
41939;DHT22;23057;48.554;14.454;2023-01-01T10:21:29;12.50;99.90
41939;DHT22;23057;48.554;14.454;2023-01-01T10:27:08;12.70;1.00
41939;DHT22;23057;48.554;14.454;2023-01-01T10:29:55;12.90;1.00
41939;DHT22;23057;48.554;14.454;2023-01-01T10:32:30;13.10;1.00
41939;DHT22;23057;48.554;14.454;2023-01-01T10:35:14;13.20;1.00
41939;DHT22;23057;48.554;14.454;2023-01-01T10:37:48;13.30;1.00
41939;DHT22;23057;48.554;14.454;2023-01-01T10:40:22;13.20;1.00
41939;DHT22;23057;48.554;14.454;2023-01-01T10:42:57;13.30;1.00
41939;DHT22;23057;48.554;14.454;2023-01-01T10:45:31;13.30;1.00
41939;DHT22;23057;48.554;14.454;2023-01-01T10:48:12;13.40;1.00
41939;DHT22;23057;48.554;14.454;2023-01-01T10:53:36;13.80;99.90
41939;DHT22;23057;48.554;14.454;2023-01-01T10:56:12;13.80;99.90
41939;DHT22;23057;48.554;14.454;2023-01-01T10:58:47;13.90;99.90
41939;DHT22;23057;48.554;14.454;2023-01-01T11:06:43;14.20;99.90
41939;DHT22;23057;48.554;14.454;2023-01-01T11:12:06;14.20;99.90
41939;DHT22;23057;48.554;14.454;2023-01-01T11:14:52;14.30;99.90
41939;DHT22;23057;48.554;14.454;2023-01-01T11:17:26;14.40;99.90
41939;DHT22;23057;48.554;14.454;2023-01-01T11:20:00;14.60;95.00
41939;DHT22;23057;48.554;14.454;2023-01-01T11:22:35;14.50;99.90
41939;DHT22;23057;48.554;14.454;2023-01-01T11:30:58;14.60;99.90
41939;DHT22;23057;48.554;14.454;2023-01-01T11:33:46;14.70;91.20
41939;DHT22;23057;48.554;14.454;2023-01-01T11:36:22;14.70;95.40
41939;DHT22;23057;48.554;14.454;2023-01-01T11:39:04;14.90;74.00
41939;DHT22;23057;48.554;14.454;2023-01-01T11:41:56;15.10;83.30
41939;DHT22;23057;48.554;14.454;2023-01-01T11:44:38;15.10;85.00
41939;DHT22;23057;48.554;14.454;2023-01-01T11:47:24;15.30;42.00
41939;DHT22;23057;48.554;14.454;2023-01-01T11:50:01;15.30;17.70
41939;DHT22;23057;48.554;14.454;2023-01-01T11:52:45;15.20;5.50
41939;DHT22;23057;48.554;14.454;2023-01-01T11:58:26;15.50;17.50
41939;DHT22;23057;48.554;14.454;2023-01-01T12:01:15;15.80;99.90
41939;DHT22;23057;48.554;14.454;2023-01-01T12:04:06;15.80;1.00
41939;DHT22;23057;48.554;14.454;2023-01-01T12:06:50;15.80;1.00
41939;DHT22;23057;48.554;14.454;2023-01-01T12:09:35;15.90;1.00
41939;DHT22;23057;48.554;14.454;2023-01-01T12:12:22;15.80;1.00
41939;DHT22;23057;48.554;14.454;2023-01-01T12:20:55;16.40;1.00
41939;DHT22;23057;48.554;14.454;2023-01-01T12:23:32;16.30;1.00
41939;DHT22;23057;48.554;14.454;2023-01-01T12:38:33;16.30;1.00
41939;DHT22;23057;48.554;14.454;2023-01-01T12:44:13;16.50;1.00
41939;DHT22;23057;48.554;14.454;2023-01-01T12:47:20;16.40;1.00
41939;DHT22;23057;48.554;14.454;2023-01-01T12:50:48;16.50;1.00
41939;DHT22;23057;48.554;14.454;2023-01-01T12:59:16;16.70;1.00
41939;DHT22;23057;48.554;14.454;2023-01-01T13:02:02;16.80;1.00
41939;DHT22;23057;48.554;14.454;2023-01-01T13:04:48;16.90;1.00
41939;DHT22;23057;48.554;14.454;2023-01-01T13:07:27;17.00;1.00
41939;DHT22;23057;48.554;14.454;2023-01-01T13:10:26;17.00;1.00
41939;DHT22;23057;48.554;14.454;2023-01-01T13:13:19;17.10;1.00
41939;DHT22;23057;48.554;14.454;2023-01-01T13:15:54;17.00;1.00
41939;DHT22;23057;48.554;14.454;2023-01-01T13:18:32;16.90;1.00
41939;DHT22;23057;48.554;14.454;2023-01-01T13:21:06;16.60;1.00
41939;DHT22;23057;48.554;14.454;2023-01-01T13:23:52;16.70;1.00
41939;DHT22;23057;48.554;14.454;2023-01-01T13:26:30;16.70;1.00
41939;DHT22;23057;48.554;14.454;2023-01-01T13:42:46;16.60;1.00
41939;DHT22;23057;48.554;14.454;2023-01-01T13:45:36;16.30;1.00
41939;DHT22;23057;48.554;14.454;2023-01-01T14:01:00;15.70;1.00
41939;DHT22;23057;48.554;14.454;2023-01-01T14:03:43;15.70;1.00
41939;DHT22;23057;48.554;14.454;2023-01-01T14:06:27;15.60;1.00
41939;DHT22;23057;48.554;14.454;2023-01-01T14:09:12;15.60;1.00
41939;DHT22;23057;48.554;14.454;2023-01-01T14:11:45;15.60;1.00
41939;DHT22;23057;48.554;14.454;2023-01-01T14:14:25;15.50;1.00
41939;DHT22;23057;48.554;14.454;2023-01-01T14:16:59;15.40;1.00
41939;DHT22;23057;48.554;14.454;2023-01-01T14:19:35;15.30;1.00
41939;DHT22;23057;48.554;14.454;2023-01-01T14:22:13;15.20;22.90
41939;DHT22;23057;48.554;14.454;2023-01-01T14:24:46;14.90;8.90
41939;DHT22;23057;48.554;14.454;2023-01-01T14:27:18;14.90;76.80
41939;DHT22;23057;48.554;14.454;2023-01-01T14:29:51;14.80;94.20
41939;DHT22;23057;48.554;14.454;2023-01-01T14:32:23;14.70;99.90
41939;DHT22;23057;48.554;14.454;2023-01-01T14:34:58;14.60;99.90
41939;DHT22;23057;48.554;14.454;2023-01-01T14:37:31;14.50;99.90
41939;DHT22;23057;48.554;14.454;2023-01-01T14:42:50;13.90;99.90
41939;DHT22;23057;48.554;14.454;2023-01-01T14:45:27;13.80;99.90
41939;DHT22;23057;48.554;14.454;2023-01-01T14:48:01;13.50;99.90
41939;DHT22;23057;48.554;14.454;2023-01-01T14:50:34;13.40;99.90
41939;DHT22;23057;48.554;14.454;2023-01-01T14:53:06;13.00;99.90
41939;DHT22;23057;48.554;14.454;2023-01-01T14:55:47;12.80;1.00
41939;DHT22;23057;48.554;14.454;2023-01-01T14:58:21;12.60;1.00
41939;DHT22;23057;48.554;14.454;2023-01-01T15:01:14;12.50;1.00
41939;DHT22;23057;48.554;14.454;2023-01-01T15:04:03;12.40;27.20
41939;DHT22;23057;48.554;14.454;2023-01-01T15:06:54;12.30;78.60
41939;DHT22;23057;48.554;14.454;2023-01-01T15:09:27;12.30;99.90
41939;DHT22;23057;48.554;14.454;2023-01-01T15:12:01;12.10;99.90
41939;DHT22;23057;48.554;14.454;2023-01-01T15:14:34;12.00;99.90
41939;DHT22;23057;48.554;14.454;2023-01-01T15:17:09;11.90;99.90
41939;DHT22;23057;48.554;14.454;2023-01-01T15:19:43;11.80;99.90
41939;DHT22;23057;48.554;14.454;2023-01-01T15:22:49;11.50;99.90
41939;DHT22;23057;48.554;14.454;2023-01-01T15:25:21;11.30;99.90
41939;DHT22;23057;48.554;14.454;2023-01-01T15:27:55;11.10;99.90
41939;DHT22;23057;48.554;14.454;2023-01-01T15:30:30;11.00;99.90
41939;DHT22;23057;48.554;14.454;2023-01-01T15:33:12;10.80;99.90
41939;DHT22;23057;48.554;14.454;2023-01-01T15:35:49;10.70;99.90
41939;DHT22;23057;48.554;14.454;2023-01-01T15:38:23;10.60;99.90
41939;DHT22;23057;48.554;14.454;2023-01-01T15:41:00;10.60;99.90
41939;DHT22;23057;48.554;14.454;2023-01-01T15:44:27;10.60;99.90
41939;DHT22;23057;48.554;14.454;2023-01-01T15:47:10;10.40;88.70
41939;DHT22;23057;48.554;14.454;2023-01-01T15:49:44;10.20;99.90
41939;DHT22;23057;48.554;14.454;2023-01-01T15:52:16;10.10;99.90
41939;DHT22;23057;48.554;14.454;2023-01-01T15:54:58;10.00;99.90
41939;DHT22;23057;48.554;14.454;2023-01-01T15:57:29;10.00;99.90
41939;DHT22;23057;48.554;14.454;2023-01-01T16:00:00;9.90;99.90
41939;DHT22;23057;48.554;14.454;2023-01-01T16:02:32;9.80;99.90
41939;DHT22;23057;48.554;14.454;2023-01-01T16:05:12;9.60;1.00
41939;DHT22;23057;48.554;14.454;2023-01-01T16:07:45;9.50;26.40
41939;DHT22;23057;48.554;14.454;2023-01-01T16:10:16;9.40;99.90
41939;DHT22;23057;48.554;14.454;2023-01-01T16:12:47;9.30;99.90
41939;DHT22;23057;48.554;14.454;2023-01-01T16:15:18;9.30;99.90
41939;DHT22;23057;48.554;14.454;2023-01-01T16:17:49;9.20;99.90
41939;DHT22;23057;48.554;14.454;2023-01-01T16:20:20;9.10;1.00
41939;DHT22;23057;48.554;14.454;2023-01-01T16:22:51;8.90;1.00
41939;DHT22;23057;48.554;14.454;2023-01-01T16:25:22;8.80;16.00
41939;DHT22;23057;48.554;14.454;2023-01-01T16:27:53;8.60;99.90
41939;DHT22;23057;48.554;14.454;2023-01-01T16:30:24;8.50;99.90
41939;DHT22;23057;48.554;14.454;2023-01-01T16:32:56;8.40;99.90
41939;DHT22;23057;48.554;14.454;2023-01-01T16:35:27;8.20;99.90
41939;DHT22;23057;48.554;14.454;2023-01-01T16:37:57;8.20;99.90
41939;DHT22;23057;48.554;14.454;2023-01-01T16:40:28;8.10;99.90
41939;DHT22;23057;48.554;14.454;2023-01-01T16:42:59;7.90;99.90
41939;DHT22;23057;48.554;14.454;2023-01-01T16:45:30;7.80;99.90
41939;DHT22;23057;48.554;14.454;2023-01-01T16:48:01;7.70;99.90
41939;DHT22;23057;48.554;14.454;2023-01-01T16:50:32;7.60;99.90
41939;DHT22;23057;48.554;14.454;2023-01-01T16:53:02;7.60;99.90
41939;DHT22;23057;48.554;14.454;2023-01-01T16:55:33;7.70;99.90
41939;DHT22;23057;48.554;14.454;2023-01-01T16:58:04;7.80;99.90
41939;DHT22;23057;48.554;14.454;2023-01-01T17:00:34;7.80;99.90
41939;DHT22;23057;48.554;14.454;2023-01-01T17:03:07;7.80;99.90
41939;DHT22;23057;48.554;14.454;2023-01-01T17:05:38;7.70;99.90
41939;DHT22;23057;48.554;14.454;2023-01-01T17:08:09;7.60;99.90
41939;DHT22;23057;48.554;14.454;2023-01-01T17:10:41;7.50;99.90
41939;DHT22;23057;48.554;14.454;2023-01-01T17:13:11;7.30;99.90
41939;DHT22;23057;48.554;14.454;2023-01-01T17:15:42;7.20;99.90
41939;DHT22;23057;48.554;14.454;2023-01-01T17:18:13;7.20;99.90
41939;DHT22;23057;48.554;14.454;2023-01-01T17:20:44;7.10;99.90
41939;DHT22;23057;48.554;14.454;2023-01-01T17:23:15;7.10;99.90
41939;DHT22;23057;48.554;14.454;2023-01-01T17:25:46;7.10;99.90
41939;DHT22;23057;48.554;14.454;2023-01-01T17:28:16;7.10;99.90
41939;DHT22;23057;48.554;14.454;2023-01-01T17:30:47;7.00;99.90
41939;DHT22;23057;48.554;14.454;2023-01-01T17:33:18;6.90;99.90
41939;DHT22;23057;48.554;14.454;2023-01-01T17:35:49;6.80;99.90
41939;DHT22;23057;48.554;14.454;2023-01-01T17:38:20;6.60;99.90
41939;DHT22;23057;48.554;14.454;2023-01-01T17:40:51;6.60;99.90
41939;DHT22;23057;48.554;14.454;2023-01-01T17:43:22;6.60;99.90
41939;DHT22;23057;48.554;14.454;2023-01-01T17:45:53;6.80;99.90
41939;DHT22;23057;48.554;14.454;2023-01-01T17:48:23;6.90;99.90
41939;DHT22;23057;48.554;14.454;2023-01-01T17:50:54;6.90;99.90
41939;DHT22;23057;48.554;14.454;2023-01-01T17:53:25;6.80;99.90
41939;DHT22;23057;48.554;14.454;2023-01-01T17:55:56;6.70;99.90
41939;DHT22;23057;48.554;14.454;2023-01-01T17:58:27;6.50;99.90
41939;DHT22;23057;48.554;14.454;2023-01-01T18:01:10;6.50;99.90
41939;DHT22;23057;48.554;14.454;2023-01-01T18:04:00;6.40;99.90
41939;DHT22;23057;48.554;14.454;2023-01-01T18:06:35;6.30;99.90
41939;DHT22;23057;48.554;14.454;2023-01-01T18:09:09;6.30;99.90
41939;DHT22;23057;48.554;14.454;2023-01-01T18:11:42;6.30;99.90
41939;DHT22;23057;48.554;14.454;2023-01-01T18:14:13;6.40;99.90
41939;DHT22;23057;48.554;14.454;2023-01-01T18:16:44;6.50;99.90
41939;DHT22;23057;48.554;14.454;2023-01-01T18:19:15;6.50;99.90